Time;durP1;ratioP1;P1;durP2;ratioP2;P2;SDS_P1;SDS_P2;PMS_P1;PMS_P2;Temp;Humidity;BMP_temperature;BMP_pressure;BME280_temperature;BME280_humidity;BME280_pressure;Samples;Min_cycle;Max_cycle;Signal;HPM_P1;HPM_P2
2021/01/26 00:00:32;;;;;;;33.22;17.48;;;5.70;92.50;;;;;;5053673;28;20021;-71
2021/01/26 00:02:58;;;;;;;31.40;17.23;;;5.70;92.50;;;;;;5055509;28;20064;-71
2021/01/26 00:05:24;;;;;;;29.05;17.00;;;5.70;92.50;;;;;;5051848;28;20032;-71
2021/01/26 00:07:49;;;;;;;30.33;16.83;;;5.70;92.40;;;;;;5052493;28;20024;-71
2021/01/26 00:10:15;;;;;;;30.98;16.80;;;5.70;92.30;;;;;;5052961;28;20512;-71
2021/01/26 00:12:41;;;;;;;29.83;16.70;;;5.70;92.40;;;;;;5051462;28;20029;-70
2021/01/26 00:15:08;;;;;;;38.90;17.42;;;5.70;92.30;;;;;;5033144;28;20432;-71
2021/01/26 00:17:33;;;;;;;26.65;15.07;;;5.60;92.30;;;;;;5042497;28;20424;-71
2021/01/26 00:19:59;;;;;;;27.52;16.02;;;5.60;92.30;;;;;;5052857;28;20020;-71
2021/01/26 00:22:24;;;;;;;29.55;15.88;;;5.60;92.20;;;;;;5050852;28;20305;-71
2021/01/26 00:24:49;;;;;;;31.38;16.63;;;5.60;92.20;;;;;;5033271;28;20100;-70
2021/01/26 00:27:15;;;;;;;32.40;18.13;;;5.50;92.20;;;;;;5046992;28;20032;-70
2021/01/26 00:29:41;;;;;;;27.27;14.80;;;5.60;92.20;;;;;;5052267;28;20029;-70
2021/01/26 00:32:07;;;;;;;25.35;14.73;;;5.50;92.20;;;;;;5051251;28;20029;-70
2021/01/26 00:34:32;;;;;;;31.23;16.23;;;5.50;92.20;;;;;;5054829;28;20678;-70
2021/01/26 00:36:57;;;;;;;27.45;15.68;;;5.50;92.20;;;;;;5058575;28;20079;-70
2021/01/26 00:39:23;;;;;;;30.75;15.05;;;5.40;92.30;;;;;;5051083;28;20021;-70
2021/01/26 00:41:49;;;;;;;29.05;16.88;;;5.40;92.20;;;;;;5063280;28;20037;-71
2021/01/26 00:44:15;;;;;;;28.60;15.27;;;5.40;92.30;;;;;;5053073;28;20040;-70
2021/01/26 00:46:40;;;;;;;31.38;16.38;;;5.40;92.30;;;;;;5045573;28;20029;-71
2021/01/26 00:49:06;;;;;;;28.85;15.07;;;5.30;92.20;;;;;;5051552;28;20107;-70
2021/01/26 00:51:32;;;;;;;28.25;16.00;;;5.30;92.30;;;;;;5050794;28;20025;-71
2021/01/26 00:53:57;;;;;;;27.70;16.40;;;5.30;92.30;;;;;;5052058;28;20086;-70
2021/01/26 00:56:23;;;;;;;33.08;16.65;;;5.30;92.30;;;;;;5049896;28;21808;-70
2021/01/26 00:58:48;;;;;;;23.63;14.35;;;5.30;92.30;;;;;;5049885;28;20393;-71
2021/01/26 01:01:14;;;;;;;31.40;16.42;;;5.30;92.30;;;;;;5067351;28;20493;-71
2021/01/26 01:03:40;;;;;;;32.47;16.45;;;5.30;92.30;;;;;;5057537;28;20040;-71
2021/01/26 01:06:06;;;;;;;30.90;17.25;;;5.30;92.30;;;;;;5045867;28;20593;-70
2021/01/26 01:08:31;;;;;;;31.90;16.15;;;5.30;92.30;;;;;;5042553;28;20039;-70
2021/01/26 01:10:57;;;;;;;29.95;16.98;;;5.30;92.30;;;;;;5047409;28;20027;-70
2021/01/26 01:13:23;;;;;;;30.90;15.25;;;5.30;92.30;;;;;;5041776;28;20524;-71
2021/01/26 01:15:48;;;;;;;26.17;15.63;;;5.20;92.30;;;;;;5062159;28;20037;-71
2021/01/26 01:18:14;;;;;;;27.38;16.38;;;5.20;92.30;;;;;;5068717;28;20172;-71
2021/01/26 01:20:39;;;;;;;32.15;17.48;;;5.20;92.30;;;;;;5061655;28;20397;-71
2021/01/26 01:23:05;;;;;;;28.58;15.95;;;5.20;92.40;;;;;;5049703;28;20053;-71
2021/01/26 01:25:31;;;;;;;33.28;18.67;;;5.20;92.40;;;;;;5051886;28;20362;-71
2021/01/26 01:27:57;;;;;;;30.13;16.90;;;5.20;92.30;;;;;;5052884;28;20388;-71
2021/01/26 01:30:26;;;;;;;34.08;17.83;;;5.10;92.30;;;;;;5071794;28;20025;-71
2021/01/26 01:32:51;;;;;;;30.83;17.27;;;5.20;92.30;;;;;;5062182;28;20138;-71
2021/01/26 01:35:18;;;;;;;32.63;17.73;;;5.20;92.30;;;;;;5053975;28;20091;-71
2021/01/26 01:37:43;;;;;;;29.42;16.52;;;5.10;92.30;;;;;;5047044;28;20032;-71
2021/01/26 01:40:13;;;;;;;30.20;17.13;;;5.10;92.30;;;;;;5034239;28;20025;-71
2021/01/26 01:42:39;;;;;;;28.85;17.35;;;5.20;92.40;;;;;;5047758;28;20686;-71
2021/01/26 01:45:06;;;;;;;26.42;16.23;;;5.10;92.40;;;;;;5034077;28;20022;-71
2021/01/26 01:47:48;;;;;;;28.98;16.98;;;5.20;92.50;;;;;;5048332;28;20025;-71
2021/01/26 01:50:21;;;;;;;31.13;17.48;;;5.20;92.40;;;;;;5051561;28;20091;-70
2021/01/26 01:52:56;;;;;;;28.45;17.13;;;5.20;92.40;;;;;;5046596;28;20109;-71
2021/01/26 01:55:24;;;;;;;35.40;18.70;;;5.20;92.30;;;;;;5064218;28;20072;-71
2021/01/26 01:58:00;;;;;;;30.75;17.30;;;5.20;92.30;;;;;;5063971;28;20045;-71
2021/01/26 02:00:26;;;;;;;31.05;16.17;;;5.20;92.20;;;;;;5049386;28;20060;-71
2021/01/26 02:03:11;;;;;;;27.25;16.83;;;5.20;92.20;;;;;;5049381;28;20090;-71
2021/01/26 02:05:38;;;;;;;31.85;18.73;;;5.20;92.40;;;;;;5071410;28;20388;-71
2021/01/26 02:08:07;;;;;;;31.35;17.15;;;5.20;92.10;;;;;;5061377;28;20025;-71
2021/01/26 02:10:32;;;;;;;31.80;17.10;;;5.20;92.10;;;;;;5048657;28;20036;-71
2021/01/26 02:12:58;;;;;;;33.85;16.75;;;5.20;92.10;;;;;;5051480;28;20021;-71
2021/01/26 02:15:23;;;;;;;32.90;17.05;;;5.20;92.10;;;;;;5052516;28;20022;-71
2021/01/26 02:18:07;;;;;;;30.05;16.75;;;5.20;92.00;;;;;;5071212;28;20123;-71
2021/01/26 02:20:54;;;;;;;29.08;17.65;;;5.20;92.00;;;;;;5050901;28;20020;-71
2021/01/26 02:23:58;;;;;;;31.00;17.35;;;5.10;91.90;;;;;;5071311;28;20021;-71
2021/01/26 02:26:54;;;;;;;29.92;17.80;;;5.10;91.90;;;;;;5060892;28;20032;-72
2021/01/26 02:29:39;;;;;;;31.65;17.00;;;5.10;91.90;;;;;;5061139;28;20036;-72
2021/01/26 02:32:25;;;;;;;;;;;5.10;91.80;;;;;;5052653;28;20056;-72
2021/01/26 02:35:06;;;;;;;27.98;16.15;;;5.10;91.70;;;;;;5050553;28;19909;-72
2021/01/26 02:37:59;;;;;;;29.00;15.57;;;5.00;91.90;;;;;;5063129;28;20044;-72
2021/01/26 02:40:49;;;;;;;32.83;17.65;;;5.00;91.90;;;;;;5053801;28;20036;-72
2021/01/26 02:43:46;;;;;;;31.88;16.92;;;5.00;91.90;;;;;;5071229;28;20043;-72
2021/01/26 02:46:39;;;;;;;30.58;16.83;;;5.00;91.90;;;;;;5066140;28;20048;-72
2021/01/26 02:49:16;;;;;;;29.52;16.05;;;5.00;91.80;;;;;;5064142;28;20025;-72
2021/01/26 02:51:55;;;;;;;26.75;15.80;;;5.00;91.80;;;;;;5049212;28;20029;-72
2021/01/26 02:54:31;;;;;;;31.02;16.67;;;5.00;91.80;;;;;;5046780;28;20108;-72
2021/01/26 02:57:01;;;;;;;26.50;15.90;;;4.90;91.80;;;;;;5070518;28;20049;-72
2021/01/26 02:59:34;;;;;;;32.80;16.27;;;4.90;91.80;;;;;;5063429;28;20417;-72
2021/01/26 03:02:08;;;;;;;29.80;15.65;;;4.90;91.70;;;;;;5074799;28;20040;-72
2021/01/26 03:04:47;;;;;;;25.42;14.43;;;4.90;91.80;;;;;;5058695;28;20504;-72
2021/01/26 03:07:15;;;;;;;29.77;16.05;;;4.90;91.80;;;;;;5071612;28;20111;-71
2021/01/26 03:09:44;;;;;;;30.63;16.00;;;4.80;91.80;;;;;;5048407;28;20037;-71
2021/01/26 03:12:14;;;;;;;27.15;16.85;;;4.80;91.80;;;;;;5074357;28;20021;-71
2021/01/26 03:14:44;;;;;;;29.15;16.85;;;4.80;91.70;;;;;;5067367;28;20025;-71
2021/01/26 03:17:31;;;;;;;25.75;15.68;;;4.80;91.70;;;;;;5074100;28;20029;-71
2021/01/26 03:20:04;;;;;;;28.02;15.15;;;4.80;91.70;;;;;;5062673;28;20179;-70
2021/01/26 03:22:30;;;;;;;28.13;16.00;;;4.80;91.70;;;;;;5053087;28;20059;-71
2021/01/26 03:24:57;;;;;;;28.08;15.73;;;4.80;91.60;;;;;;5055000;28;20071;-70
2021/01/26 03:27:30;;;;;;;29.20;16.13;;;4.80;91.60;;;;;;5056469;28;20051;-70
2021/01/26 03:29:58;;;;;;;24.88;14.70;;;4.80;91.60;;;;;;5059968;28;20037;-70
2021/01/26 03:32:33;;;;;;;28.08;15.45;;;4.70;91.50;;;;;;5054129;28;20025;-70
2021/01/26 03:34:58;;;;;;;29.55;16.92;;;4.70;91.50;;;;;;5052470;28;20078;-70
2021/01/26 03:37:25;;;;;;;30.13;15.18;;;4.70;91.50;;;;;;5053757;28;20033;-70
2021/01/26 03:39:52;;;;;;;25.80;14.98;;;4.70;91.60;;;;;;5062284;28;20458;-70
2021/01/26 03:42:18;;;;;;;28.77;14.93;;;4.70;91.50;;;;;;5073891;28;20032;-70
2021/01/26 03:44:46;;;;;;;28.15;15.88;;;4.70;91.50;;;;;;5060101;28;20032;-71
2021/01/26 03:47:26;;;;;;;26.88;15.02;;;4.60;91.50;;;;;;5052429;28;20033;-71
2021/01/26 03:50:03;;;;;;;27.10;15.02;;;4.60;91.50;;;;;;5048797;28;20029;-71
2021/01/26 03:53:07;;;;;;;28.05;15.45;;;4.60;91.50;;;;;;5034012;28;20056;-72
2021/01/26 03:55:43;;;;;;;30.83;16.30;;;4.60;91.50;;;;;;5066930;28;20048;-72
2021/01/26 03:58:46;;;;;;;26.50;15.57;;;4.50;91.50;;;;;;5054741;28;20033;-71
2021/01/26 04:01:30;;;;;;;29.17;15.85;;;4.50;91.50;;;;;;5053622;28;20056;-71
2021/01/26 04:04:18;;;;;;;29.67;14.98;;;4.40;91.60;;;;;;5055567;28;20025;-72
2021/01/26 04:06:48;;;;;;;30.05;16.23;;;4.40;91.60;;;;;;5052197;28;20032;-72
2021/01/26 04:09:27;;;;;;;30.15;17.00;;;4.40;91.60;;;;;;5059973;28;20043;-72
2021/01/26 04:12:10;;;;;;;25.83;15.27;;;4.40;91.70;;;;;;5053312;28;20047;-72
2021/01/26 04:14:47;;;;;;;26.45;15.38;;;4.40;91.70;;;;;;5043457;28;20033;-72
2021/01/26 04:17:29;;;;;;;29.52;15.35;;;4.40;91.70;;;;;;5033185;28;20037;-72
2021/01/26 04:20:01;;;;;;;25.67;14.77;;;4.30;91.70;;;;;;5041113;28;20112;-73
2021/01/26 04:22:27;;;;;;;28.40;16.92;;;4.30;91.60;;;;;;5033242;28;20025;-73
2021/01/26 04:24:52;;;;;;;29.17;17.27;;;4.30;91.70;;;;;;5047383;28;20056;-72
2021/01/26 04:27:22;;;;;;;29.17;16.25;;;4.20;91.70;;;;;;5036984;28;20022;-72
2021/01/26 04:29:49;;;;;;;27.95;15.50;;;4.20;91.80;;;;;;5059701;28;20071;-72
2021/01/26 04:32:17;;;;;;;26.40;15.48;;;4.20;91.80;;;;;;5052654;28;20374;-73
2021/01/26 04:34:43;;;;;;;27.33;16.23;;;4.10;91.90;;;;;;5051966;28;20025;-73
2021/01/26 04:37:08;;;;;;;30.20;17.23;;;4.10;92.00;;;;;;5037478;28;20048;-72
2021/01/26 04:39:33;;;;;;;29.20;15.73;;;4.10;92.00;;;;;;5060336;28;20428;-72
2021/01/26 04:42:09;;;;;;;30.92;17.17;;;4.10;92.00;;;;;;5071158;28;20107;-72
2021/01/26 04:44:56;;;;;;;29.88;16.25;;;4.10;92.00;;;;;;5043155;28;20137;-72
2021/01/26 04:47:46;;;;;;;30.73;15.95;;;4.00;91.90;;;;;;5043613;28;20454;-72
2021/01/26 04:50:30;;;;;;;27.73;15.85;;;4.10;92.00;;;;;;5051368;28;20051;-71
2021/01/26 04:53:39;;;;;;;27.83;14.73;;;4.00;92.00;;;;;;5066593;28;20504;-71
2021/01/26 04:56:16;;;;;;;26.95;16.48;;;4.00;92.00;;;;;;5052047;28;20057;-72
2021/01/26 04:59:08;;;;;;;26.48;15.48;;;4.00;91.90;;;;;;5034597;28;20066;-71
2021/01/26 05:01:55;;;;;;;27.48;14.85;;;4.00;92.00;;;;;;5054136;28;20417;-72
2021/01/26 05:04:37;;;;;;;24.17;15.90;;;4.00;92.10;;;;;;5062679;28;20029;-71
2021/01/26 05:07:11;;;;;;;28.33;16.20;;;3.90;92.00;;;;;;5056054;28;20381;-72
2021/01/26 05:09:55;;;;;;;31.00;16.70;;;3.90;92.00;;;;;;5060548;28;20029;-72
2021/01/26 05:12:23;;;;;;;30.27;15.98;;;3.90;92.10;;;;;;5062963;28;20362;-72
2021/01/26 05:14:55;;;;;;;28.13;15.60;;;3.80;92.00;;;;;;5057353;28;20507;-72
2021/01/26 05:17:31;;;;;;;30.48;16.02;;;3.80;92.00;;;;;;5061410;28;20508;-72
2021/01/26 05:20:04;;;;;;;25.48;15.50;;;3.80;92.00;;;;;;5052952;28;20036;-72
2021/01/26 05:22:50;;;;;;;30.25;16.40;;;3.80;92.00;;;;;;5053741;28;20369;-71
2021/01/26 05:25:19;;;;;;;27.52;15.30;;;3.70;92.00;;;;;;5041266;28;20554;-72
2021/01/26 05:27:46;;;;;;;27.73;15.73;;;3.70;92.10;;;;;;5067859;28;20487;-71
2021/01/26 05:30:18;;;;;;;27.83;15.73;;;3.70;92.10;;;;;;5050635;28;20037;-72
2021/01/26 05:32:45;;;;;;;26.60;15.13;;;3.60;92.10;;;;;;5051476;28;20060;-72
2021/01/26 05:35:13;;;;;;;29.23;16.60;;;3.70;92.10;;;;;;5051089;28;20041;-72
2021/01/26 05:37:39;;;;;;;26.98;15.50;;;3.70;92.20;;;;;;5051071;28;20037;-72
2021/01/26 05:40:17;;;;;;;28.95;15.73;;;3.60;92.20;;;;;;5049876;28;20500;-78
2021/01/26 05:42:47;;;;;;;27.20;15.38;;;3.60;92.20;;;;;;5051617;28;20579;-74
2021/01/26 05:45:21;;;;;;;26.38;16.05;;;3.60;92.20;;;;;;5036904;28;20430;-73
2021/01/26 05:48:00;;;;;;;29.75;14.98;;;3.50;92.20;;;;;;5051784;28;20556;-73
2021/01/26 05:50:28;;;;;;;25.88;15.32;;;3.40;92.20;;;;;;5038592;28;20037;-73
2021/01/26 05:52:58;;;;;;;27.05;15.05;;;3.50;92.30;;;;;;5051774;28;20450;-73
2021/01/26 05:55:25;;;;;;;23.08;14.43;;;3.40;92.30;;;;;;5053166;28;20128;-73
2021/01/26 05:57:52;;;;;;;30.55;15.38;;;3.40;92.30;;;;;;5051500;28;20040;-72
2021/01/26 06:00:26;;;;;;;25.77;15.07;;;3.40;92.40;;;;;;5052915;28;20021;-72
2021/01/26 06:03:09;;;;;;;26.42;14.90;;;3.30;92.40;;;;;;5071728;28;20063;-71
2021/01/26 06:05:35;;;;;;;25.20;14.85;;;3.30;92.40;;;;;;5061616;28;20028;-69
2021/01/26 06:08:13;;;;;;;25.85;14.77;;;3.30;92.40;;;;;;5054550;28;20032;-70
2021/01/26 06:10:43;;;;;;;24.45;14.80;;;3.30;92.50;;;;;;5061378;28;20431;-69
2021/01/26 06:13:09;;;;;;;29.30;15.35;;;3.30;92.50;;;;;;5071589;28;20511;-69
2021/01/26 06:15:38;;;;;;;30.63;15.10;;;3.30;92.50;;;;;;5053834;28;20028;-69
2021/01/26 06:18:19;;;;;;;27.88;15.32;;;3.30;92.50;;;;;;5071095;28;20044;-69
2021/01/26 06:21:03;;;;;;;25.02;14.68;;;3.20;92.50;;;;;;5060236;28;20025;-69
2021/01/26 06:23:30;;;;;;;24.67;14.05;;;3.20;92.40;;;;;;5069373;28;20111;-69
2021/01/26 06:25:59;;;;;;;22.17;13.45;;;3.20;92.40;;;;;;5043295;28;20033;-69
2021/01/26 06:28:50;;;;;;;27.50;14.55;;;3.30;92.40;;;;;;5050277;28;20473;-69
2021/01/26 06:31:47;;;;;;;22.95;12.57;;;3.20;92.40;;;;;;5036294;28;20128;-69
2021/01/26 06:34:34;;;;;;;24.45;14.68;;;3.20;92.40;;;;;;5027619;28;20033;-69
2021/01/26 06:37:12;;;;;;;24.85;13.48;;;3.20;92.30;;;;;;5036581;28;20037;-70
2021/01/26 06:39:56;;;;;;;24.58;14.52;;;3.20;92.30;;;;;;5061713;28;20123;-70
2021/01/26 06:42:48;;;;;;;20.75;12.73;;;3.20;92.30;;;;;;5074950;28;20070;-69
2021/01/26 06:45:27;;;;;;;24.15;13.23;;;3.20;92.30;;;;;;5072220;28;20024;-69
2021/01/26 06:48:23;;;;;;;22.80;12.70;;;3.20;92.30;;;;;;5075229;28;20028;-70
2021/01/26 06:51:06;;;;;;;20.25;12.55;;;3.10;92.30;;;;;;5072422;28;20033;-70
2021/01/26 06:53:47;;;;;;;23.00;12.75;;;3.10;92.30;;;;;;5072383;28;20029;-70
2021/01/26 06:56:37;;;;;;;21.60;13.63;;;3.10;92.30;;;;;;5034240;28;20053;-69
2021/01/26 06:59:36;;;;;;;21.10;12.77;;;3.10;92.40;;;;;;5039628;28;20523;-69
2021/01/26 07:02:43;;;;;;;21.80;13.80;;;3.10;92.40;;;;;;5054470;28;20025;-69
2021/01/26 07:05:12;;;;;;;24.50;13.95;;;3.20;92.40;;;;;;5040732;28;20525;-69
2021/01/26 07:07:54;;;;;;;25.17;13.88;;;3.20;92.30;;;;;;5037293;28;20033;-70
2021/01/26 07:10:35;;;;;;;26.48;14.07;;;3.10;92.40;;;;;;5046134;28;20397;-69
2021/01/26 07:13:16;;;;;;;25.85;14.57;;;3.20;92.40;;;;;;5054215;28;20029;-70
2021/01/26 07:16:06;;;;;;;24.73;14.30;;;3.20;92.30;;;;;;5053079;28;20128;-69
2021/01/26 07:18:59;;;;;;;23.40;14.48;;;3.20;92.30;;;;;;5053836;28;20025;-69
2021/01/26 07:21:49;;;;;;;24.92;13.60;;;3.20;92.30;;;;;;5034263;28;20444;-69
2021/01/26 07:24:35;;;;;;;24.52;13.68;;;3.20;92.20;;;;;;5049793;28;20036;-69
2021/01/26 07:27:36;;;;;;;23.75;13.75;;;3.20;92.20;;;;;;5054080;28;20025;-69
2021/01/26 07:30:18;;;;;;;23.73;13.35;;;3.20;92.20;;;;;;5047443;28;20033;-69
2021/01/26 07:33:04;;;;;;;26.15;14.13;;;3.20;92.20;;;;;;5052642;28;20385;-69
2021/01/26 07:35:51;;;;;;;24.90;14.13;;;3.20;92.20;;;;;;5053205;28;20043;-69
2021/01/26 07:38:50;;;;;;;23.83;14.05;;;3.20;92.20;;;;;;5039814;28;20045;-69
2021/01/26 07:41:25;;;;;;;27.30;15.15;;;3.20;92.10;;;;;;5033869;28;20041;-69
2021/01/26 07:43:58;;;;;;;;;;;3.30;92.10;;;;;;5047937;28;20032;-69
2021/01/26 07:46:31;;;;;;;26.67;15.38;;;3.20;92.10;;;;;;5053237;28;19905;-69
2021/01/26 07:49:05;;;;;;;25.80;14.75;;;3.20;92.10;;;;;;5052339;28;20452;-69
2021/01/26 07:51:36;;;;;;;27.15;14.75;;;3.20;92.10;;;;;;5053996;28;20039;-69
2021/01/26 07:54:27;;;;;;;26.35;15.05;;;3.30;92.20;;;;;;5055751;28;20078;-70
2021/01/26 07:56:54;;;;;;;25.30;14.35;;;3.30;92.20;;;;;;5053193;28;20080;-69
2021/01/26 07:59:30;;;;;;;25.33;14.77;;;3.30;92.20;;;;;;5049806;28;20033;-69
2021/01/26 08:02:01;;;;;;;24.63;14.63;;;3.30;92.20;;;;;;5038107;28;20033;-70
2021/01/26 08:04:28;;;;;;;27.85;16.00;;;3.40;92.30;;;;;;5055507;28;20037;-69
2021/01/26 08:06:58;;;;;;;26.55;15.20;;;3.50;92.40;;;;;;5052467;28;20378;-69
2021/01/26 08:09:45;;;;;;;25.40;15.30;;;3.50;92.40;;;;;;5064017;28;20041;-69
2021/01/26 08:12:14;;;;;;;25.58;15.18;;;3.60;92.30;;;;;;5056236;28;20040;-69
2021/01/26 08:14:55;;;;;;;26.45;15.63;;;3.70;92.40;;;;;;5060059;28;20044;-69
2021/01/26 08:17:32;;;;;;;26.95;15.80;;;3.70;92.30;;;;;;5056391;28;20085;-69
2021/01/26 08:20:23;;;;;;;30.13;16.67;;;3.70;92.40;;;;;;5059045;28;20040;-69
2021/01/26 08:22:56;;;;;;;30.00;17.65;;;3.80;92.30;;;;;;5055130;28;20089;-70
2021/01/26 08:25:21;;;;;;;31.98;18.13;;;3.80;92.20;;;;;;5040852;28;20044;-74
2021/01/26 08:27:47;;;;;;;34.22;19.80;;;3.80;92.20;;;;;;5049493;28;20016;-74
2021/01/26 08:30:19;;;;;;;41.47;24.13;;;3.80;92.30;;;;;;5050188;28;20052;-71
2021/01/26 08:32:47;;;;;;;44.55;23.90;;;3.80;92.30;;;;;;5058866;28;20412;-73
2021/01/26 08:35:21;;;;;;;45.63;24.17;;;3.80;92.40;;;;;;5054775;28;20039;-76
2021/01/26 08:37:53;;;;;;;49.60;25.40;;;3.90;92.40;;;;;;5066109;28;20043;-81
2021/01/26 08:40:50;;;;;;;64.95;30.45;;;3.90;92.30;;;;;;5055609;28;20489;-73
2021/01/26 08:43:40;;;;;;;60.55;28.33;;;3.90;92.40;;;;;;5051006;28;20033;-73
2021/01/26 08:46:06;;;;;;;51.80;25.40;;;3.90;92.40;;;;;;5052623;28;20029;-72
2021/01/26 08:48:32;;;;;;;54.42;25.30;;;3.90;92.40;;;;;;5051771;28;20036;-72
2021/01/26 08:50:57;;;;;;;51.08;26.35;;;3.90;92.40;;;;;;5054619;28;20037;-73
2021/01/26 08:53:26;;;;;;;39.45;20.70;;;4.00;92.50;;;;;;5051971;28;20461;-73
2021/01/26 08:55:54;;;;;;;42.35;21.15;;;4.00;92.50;;;;;;5046126;28;20453;-72
2021/01/26 08:58:58;;;;;;;36.35;18.85;;;4.00;92.50;;;;;;5051480;28;20096;-72
2021/01/26 09:01:23;;;;;;;35.22;19.88;;;4.00;92.40;;;;;;5022545;28;20069;-71
2021/01/26 09:03:50;;;;;;;28.63;17.58;;;4.00;92.50;;;;;;5043081;28;20069;-72
2021/01/26 09:06:37;;;;;;;30.58;18.00;;;4.10;92.50;;;;;;5062617;28;20032;-71
2021/01/26 09:09:08;;;;;;;29.27;17.42;;;4.10;92.50;;;;;;5064032;28;20024;-71
2021/01/26 09:11:46;;;;;;;26.55;16.38;;;4.20;92.40;;;;;;5052540;28;20025;-71
2021/01/26 09:14:45;;;;;;;26.58;15.65;;;4.20;92.40;;;;;;5057530;28;20116;-71
2021/01/26 09:17:13;;;;;;;24.95;14.23;;;4.30;92.40;;;;;;5051854;28;20047;-72
2021/01/26 09:19:55;;;;;;;27.45;15.13;;;4.30;92.40;;;;;;5050371;28;20033;-72
2021/01/26 09:22:30;;;;;;;25.58;14.93;;;4.30;92.30;;;;;;5050565;28;20496;-71
2021/01/26 09:25:00;;;;;;;25.10;14.55;;;4.40;92.30;;;;;;5051522;28;20044;-72
2021/01/26 09:27:32;;;;;;;32.85;15.45;;;4.40;92.30;;;;;;5051914;28;20104;-73
2021/01/26 09:30:08;;;;;;;26.85;15.23;;;4.50;92.40;;;;;;5040620;28;20045;-72
2021/01/26 09:32:40;;;;;;;21.55;14.57;;;4.50;92.30;;;;;;5047979;28;20025;-72
2021/01/26 09:35:10;;;;;;;24.30;14.35;;;4.50;92.30;;;;;;5038333;28;20048;-71
2021/01/26 09:37:36;;;;;;;21.67;12.13;;;4.50;92.20;;;;;;5031891;28;20132;-71
2021/01/26 09:40:07;;;;;;;21.10;12.48;;;4.50;92.10;;;;;;5044284;28;20112;-71
2021/01/26 09:42:33;;;;;;;25.75;14.27;;;4.60;92.10;;;;;;5048881;28;20425;-71
2021/01/26 09:45:06;;;;;;;23.60;13.68;;;4.60;92.10;;;;;;5041840;28;20152;-72
2021/01/26 09:47:32;;;;;;;24.33;13.50;;;4.60;92.20;;;;;;5048581;28;20036;-72
2021/01/26 09:50:10;;;;;;;23.85;13.15;;;4.60;92.10;;;;;;5049220;28;20078;-71
2021/01/26 09:52:36;;;;;;;24.48;14.25;;;4.60;92.20;;;;;;5050719;28;20040;-70
2021/01/26 09:55:08;;;;;;;22.98;13.55;;;4.70;92.10;;;;;;5044681;28;20104;-71
2021/01/26 09:57:35;;;;;;;22.23;13.45;;;4.70;92.10;;;;;;5044641;28;20382;-70
2021/01/26 10:00:01;;;;;;;23.55;13.60;;;4.70;92.10;;;;;;5048392;28;20037;-70
2021/01/26 10:02:28;;;;;;;19.58;12.50;;;4.80;92.10;;;;;;5052568;28;20036;-71
2021/01/26 10:04:54;;;;;;;21.58;12.95;;;4.80;92.10;;;;;;5049772;28;20114;-70
2021/01/26 10:07:21;;;;;;;19.55;12.10;;;4.90;92.00;;;;;;5050561;28;20036;-70
2021/01/26 10:09:47;;;;;;;23.10;14.15;;;4.90;91.90;;;;;;5049161;28;20035;-70
2021/01/26 10:12:34;;;;;;;23.52;14.35;;;4.90;91.80;;;;;;5051497;28;20025;-71
2021/01/26 10:15:20;;;;;;;23.00;14.00;;;4.90;91.80;;;;;;5044756;28;20104;-71
2021/01/26 10:17:47;;;;;;;;;;;5.00;91.70;;;;;;5052315;28;20048;-71
2021/01/26 10:20:38;;;;;;;22.10;12.77;;;5.00;91.80;;;;;;5049034;28;19916;-72
2021/01/26 10:23:15;;;;;;;23.27;13.45;;;5.00;91.70;;;;;;5041571;28;20104;-73
2021/01/26 10:25:43;;;;;;;23.02;13.38;;;5.00;91.70;;;;;;5065935;28;20128;-73
2021/01/26 10:28:19;;;;;;;23.73;12.98;;;5.10;91.70;;;;;;5050008;28;20053;-71
2021/01/26 10:30:47;;;;;;;22.77;14.68;;;5.20;91.70;;;;;;5049889;28;20033;-73
2021/01/26 10:33:33;;;;;;;24.70;14.75;;;5.20;91.60;;;;;;5051264;28;20032;-74
2021/01/26 10:36:25;;;;;;;26.58;15.27;;;5.30;91.60;;;;;;5053013;28;20123;-76
2021/01/26 10:38:52;;;;;;;25.02;14.90;;;5.40;91.50;;;;;;5048645;28;20363;-76
2021/01/26 10:41:48;;;;;;;22.50;13.65;;;5.40;91.40;;;;;;5051548;28;20029;-76
2021/01/26 10:44:16;;;;;;;21.02;13.52;;;5.50;91.30;;;;;;5042184;28;20116;-77
2021/01/26 10:46:47;;;;;;;24.67;15.18;;;5.50;91.20;;;;;;5051204;28;20038;-77
2021/01/26 10:49:30;;;;;;;23.33;14.52;;;5.50;91.10;;;;;;5048500;28;20021;-76
2021/01/26 10:52:02;;;;;;;23.05;14.32;;;5.50;91.20;;;;;;5051065;28;20029;-77
2021/01/26 10:54:27;;;;;;;24.63;14.88;;;5.60;91.00;;;;;;5048111;28;20031;-75
2021/01/26 10:56:53;;;;;;;25.83;15.38;;;5.70;91.00;;;;;;5050874;28;20045;-76
2021/01/26 10:59:19;;;;;;;23.77;14.35;;;5.70;90.90;;;;;;5053319;28;20032;-76
2021/01/26 11:01:45;;;;;;;31.90;15.20;;;5.70;90.80;;;;;;5050971;28;20420;-73
2021/01/26 11:04:11;;;;;;;22.25;14.13;;;5.80;90.70;;;;;;5047254;28;20033;-73
2021/01/26 11:06:37;;;;;;;23.42;14.82;;;5.80;90.80;;;;;;5043342;28;20021;-73
2021/01/26 11:09:05;;;;;;;25.33;15.48;;;5.90;90.70;;;;;;5048397;28;20032;-73
2021/01/26 11:11:31;;;;;;;24.30;15.15;;;5.90;90.70;;;;;;5050878;28;20104;-73
2021/01/26 11:13:58;;;;;;;26.08;15.50;;;6.00;90.70;;;;;;5049837;28;20021;-73
2021/01/26 11:16:25;;;;;;;26.27;15.20;;;6.00;90.70;;;;;;5050422;28;20040;-73
2021/01/26 11:18:52;;;;;;;25.77;16.25;;;6.00;90.50;;;;;;5049641;28;20517;-75
2021/01/26 11:21:18;;;;;;;25.50;15.02;;;6.00;90.30;;;;;;5048780;28;20568;-73
2021/01/26 11:23:44;;;;;;;26.20;15.30;;;6.10;90.30;;;;;;5037205;28;20139;-72
2021/01/26 11:26:12;;;;;;;26.58;16.15;;;6.10;90.20;;;;;;5056384;28;20065;-72
2021/01/26 11:28:37;;;;;;;25.35;15.27;;;6.10;90.20;;;;;;5053914;28;20029;-72
2021/01/26 11:31:03;;;;;;;25.17;15.07;;;6.10;90.20;;;;;;5058770;28;20031;-71
2021/01/26 11:33:29;;;;;;;28.80;16.80;;;6.10;90.10;;;;;;5055448;28;20036;-74
2021/01/26 11:35:55;;;;;;;27.30;15.63;;;6.10;90.10;;;;;;5053554;28;20516;-74
2021/01/26 11:38:21;;;;;;;28.27;15.63;;;6.10;90.00;;;;;;5053439;28;20478;-73
2021/01/26 11:40:48;;;;;;;26.35;14.85;;;6.10;90.10;;;;;;5054136;28;20496;-73
2021/01/26 11:43:14;;;;;;;28.50;17.77;;;6.10;90.20;;;;;;5053234;28;20024;-73
2021/01/26 11:45:39;;;;;;;30.13;16.15;;;6.20;90.30;;;;;;5053610;28;20025;-72
2021/01/26 11:48:07;;;;;;;26.95;16.73;;;6.20;90.30;;;;;;5053756;28;20378;-73
2021/01/26 11:50:34;;;;;;;27.92;16.27;;;6.30;90.30;;;;;;5053731;28;20017;-73
2021/01/26 11:52:59;;;;;;;25.88;15.85;;;6.30;90.20;;;;;;5053280;28;20036;-73
2021/01/26 11:55:28;;;;;;;27.40;16.85;;;6.40;90.20;;;;;;5035047;28;20041;-73
2021/01/26 11:57:54;;;;;;;25.77;16.48;;;6.50;90.00;;;;;;5052199;28;20040;-73
2021/01/26 12:00:23;;;;;;;26.63;16.20;;;6.50;90.00;;;;;;5048624;28;20029;-74
2021/01/26 12:02:49;;;;;;;25.92;16.63;;;6.60;90.00;;;;;;5053592;28;20477;-73
2021/01/26 12:05:16;;;;;;;26.52;16.38;;;6.60;89.80;;;;;;5051190;28;20112;-73
2021/01/26 12:07:42;;;;;;;25.40;16.25;;;6.70;89.50;;;;;;5053050;28;20037;-73
2021/01/26 12:10:08;;;;;;;27.98;17.00;;;6.70;89.50;;;;;;5053134;28;20024;-73
2021/01/26 12:12:34;;;;;;;24.88;15.63;;;6.80;89.50;;;;;;5051836;28;20504;-74
2021/01/26 12:14:59;;;;;;;27.70;15.18;;;6.90;88.50;;;;;;5053022;28;20025;-74
2021/01/26 12:17:25;;;;;;;25.17;15.85;;;6.90;88.40;;;;;;5051866;28;20183;-74
2021/01/26 12:19:50;;;;;;;26.17;16.02;;;6.90;88.40;;;;;;5052424;28;20132;-73
2021/01/26 12:22:16;;;;;;;23.67;15.00;;;6.90;87.90;;;;;;5052562;28;20661;-73
2021/01/26 12:24:42;;;;;;;25.27;15.82;;;6.90;86.80;;;;;;5049675;28;20465;-72
2021/01/26 12:27:08;;;;;;;24.05;14.60;;;6.80;87.40;;;;;;5051547;28;20071;-72
2021/01/26 12:29:33;;;;;;;23.45;14.95;;;6.80;87.50;;;;;;5051796;28;20024;-72
2021/01/26 12:31:59;;;;;;;23.88;15.55;;;6.80;87.60;;;;;;5049596;28;20036;-72
2021/01/26 12:34:24;;;;;;;27.40;16.02;;;6.70;87.80;;;;;;5033296;28;20306;-72
2021/01/26 12:36:50;;;;;;;26.75;16.67;;;6.80;88.20;;;;;;5051636;28;20123;-74
2021/01/26 12:39:16;;;;;;;25.65;15.82;;;6.90;88.10;;;;;;5047861;28;20033;-73
2021/01/26 12:41:42;;;;;;;22.83;14.82;;;6.90;87.70;;;;;;5044535;28;20075;-72
2021/01/26 12:44:08;;;;;;;22.95;14.63;;;6.90;88.00;;;;;;5046456;28;20091;-70
2021/01/26 12:46:38;;;;;;;26.73;15.57;;;6.90;87.70;;;;;;5040235;28;20432;-69
2021/01/26 12:49:04;;;;;;;24.92;14.55;;;6.90;87.60;;;;;;5051112;28;20029;-69
2021/01/26 12:51:29;;;;;;;25.13;16.42;;;7.00;87.20;;;;;;5050066;28;20389;-69
2021/01/26 12:53:56;;;;;;;23.63;15.10;;;6.90;86.90;;;;;;5052226;28;20031;-69
2021/01/26 12:56:22;;;;;;;26.90;16.52;;;6.90;86.40;;;;;;5051674;28;20128;-68
2021/01/26 12:58:47;;;;;;;28.38;16.25;;;6.90;86.70;;;;;;5050909;28;20111;-69
2021/01/26 13:01:13;;;;;;;24.10;14.85;;;6.90;86.60;;;;;;5052251;28;20045;-69
2021/01/26 13:03:38;;;;;;;23.70;13.75;;;6.90;85.60;;;;;;5051898;28;20087;-71
2021/01/26 13:06:04;;;;;;;23.75;14.50;;;6.80;86.40;;;;;;5050112;28;20092;-71
2021/01/26 13:08:30;;;;;;;21.77;12.48;;;6.70;86.30;;;;;;5052243;28;20021;-68